To NAV CANADA Home Page Login to a new session Search on AWWS site Feedback and Comments Disclaimer Vers la page française équivalente Tips FAQ What's new on the site To the Forecasts and Observations / NOTAM section To "File a Flight Plan" website Publications and other links Update of the User's profile FIC Telephone Numbers My Weather Data Folder Route Weather Data Regional Weather Data Local Weather Data To the Forecasts and Observations / NOTAM section
Request Generated 08/27/2016 at 01:02:48 UTC . Weather information available at that time is displayed.

METAR/TAF

MONCTON/GREATER MONCTON INTL/NB    

METAR CYQM 270000Z 19008KT 15SM FEW040CB SCT078 SCT220 22/20 A2983
RMK CB2AC1CI1 DIST LTNGIC W-N SLP103 DENSITY ALT 1100FT=
METAR CYQM 262300Z 19008KT 15SM FEW035TCU SCT120 SCT220 23/20 A2982
RMK TCU2AC1CI1 SLP100 DENSITY ALT 1300FT=
METAR CYQM 262200Z 19009KT 15SM FEW030 FEW140 SCT220 25/20 A2981 RMK
CU1AC1CI1 SLP095 DENSITY ALT 1500FT=

TAF CYQM 262338Z 2700/2724 20008KT P6SM FEW030 SCT120 TEMPO 2700/2703
P6SM -SHRA BKN020 OVC080 PROB30 2700/2702 VRB15G30KT 2SM TSRA BR
BKN020 OVC050CB
FM270300 24007KT P6SM SCT004 TEMPO 2703/2706 BKN004 PROB30
2703/2706 1SM BR BKN002
FM270600 28008KT P6SM SKC
FM271000 34008KT P6SM BKN010
FM271600 02012KT P6SM SKC
BECMG 2722/2724 VRB03KT
RMK NXT FCST BY 270600Z=
Your time UTC time
Weather data provided by Environment Canada and NAV CANADA